createdAt,value
2023-02-09T00:00:29.665Z,19.33
2023-02-09T00:04:11.744Z,20.58
2023-02-09T00:07:53.715Z,18.92
2023-02-09T00:11:54.388Z,20.95
2023-02-09T00:15:37.396Z,18.30
2023-02-09T00:19:20.553Z,16.60
2023-02-09T00:23:02.465Z,19.10
2023-02-09T00:26:44.957Z,18.48
2023-02-09T00:30:26.919Z,16.98
2023-02-09T00:34:09.119Z,17.95
2023-02-09T00:37:51.235Z,16.40
2023-02-09T00:41:51.609Z,18.23
2023-02-09T00:45:34.325Z,15.35
2023-02-09T00:49:16.615Z,16.90
2023-02-09T00:52:59.883Z,17.30
2023-02-09T00:56:41.829Z,19.13
2023-02-09T01:00:23.882Z,19.60
2023-02-09T01:04:05.940Z,18.42
2023-02-09T01:07:47.828Z,18.33
2023-02-09T01:11:30.455Z,19.08
2023-02-09T01:15:12.917Z,19.25
2023-02-09T01:18:56.017Z,18.27
2023-02-09T01:22:38.642Z,18.17
2023-02-09T01:26:20.641Z,15.93
2023-02-09T01:30:03.093Z,16.38
2023-02-09T01:33:45.047Z,18.40
2023-02-09T01:37:27.026Z,20.05
2023-02-09T01:41:09.165Z,18.27
2023-02-09T01:45:06.089Z,17.75
2023-02-09T01:48:51.199Z,18.38
2023-02-09T01:52:33.217Z,19.30
2023-02-09T01:56:23.155Z,18.73
2023-02-09T02:00:11.789Z,18.45
2023-02-09T02:03:54.540Z,19.02
2023-02-09T02:08:02.165Z,20.05
2023-02-09T02:11:47.348Z,17.30
2023-02-09T02:15:37.123Z,15.93
2023-02-09T02:19:46.741Z,18.38
2023-02-09T02:23:41.603Z,15.77
2023-02-09T02:27:46.577Z,15.63
2023-02-09T02:31:50.162Z,21.88
2023-02-09T02:35:42.064Z,16.63
2023-02-09T02:39:37.010Z,16.23
2023-02-09T02:43:32.061Z,16.25
2023-02-09T02:47:19.372Z,17.63
2023-02-09T02:51:16.042Z,17.67
2023-02-09T02:55:05.139Z,17.20
2023-02-09T02:58:51.095Z,16.88
2023-02-09T03:02:47.807Z,19.85
2023-02-09T03:06:33.186Z,18.05
2023-02-09T03:10:30.670Z,17.70
2023-02-09T03:14:13.169Z,16.50
2023-02-09T03:18:43.896Z,15.90
2023-02-09T03:22:34.928Z,14.15
2023-02-09T03:26:22.608Z,18.42
2023-02-09T03:30:07.456Z,16.05
2023-02-09T03:33:50.495Z,15.52
2023-02-09T03:37:32.449Z,16.45
2023-02-09T03:41:14.468Z,18.42
2023-02-09T03:44:56.408Z,12.10
2023-02-09T03:48:38.324Z,14.85
2023-02-09T03:52:20.280Z,12.93
2023-02-09T03:56:03.611Z,13.77
2023-02-09T03:59:45.578Z,14.02
2023-02-09T04:03:27.511Z,12.27
2023-02-09T04:07:09.464Z,14.95
2023-02-09T04:10:51.411Z,15.30
2023-02-09T04:14:33.360Z,14.48
2023-02-09T04:18:15.360Z,15.07
2023-02-09T04:21:57.299Z,13.43
2023-02-09T04:25:39.285Z,11.98
2023-02-09T04:29:21.324Z,13.30
2023-02-09T04:33:03.324Z,13.52
2023-02-09T04:36:45.244Z,17.13
2023-02-09T04:40:27.155Z,12.13
2023-02-09T04:44:09.427Z,14.88
2023-02-09T04:47:51.400Z,15.15
2023-02-09T04:51:33.326Z,18.30
2023-02-09T04:55:15.287Z,12.02
2023-02-09T04:59:15.767Z,13.65
2023-02-09T05:02:57.712Z,16.63
2023-02-09T05:06:39.686Z,22.85
2023-02-09T05:10:21.674Z,36.47
2023-02-09T05:14:03.621Z,51.90
2023-02-09T05:17:45.581Z,57.78
2023-02-09T05:21:27.516Z,59.35
2023-02-09T05:25:09.604Z,60.63
2023-02-09T05:28:51.589Z,60.42
2023-02-09T05:32:33.482Z,60.80
2023-02-09T05:36:15.466Z,69.00
2023-02-09T05:39:57.437Z,58.00
2023-02-09T05:43:39.402Z,61.50
2023-02-09T05:47:24.659Z,52.40
2023-02-09T05:51:06.764Z,45.63
2023-02-09T05:54:49.143Z,38.95
2023-02-09T05:58:31.076Z,29.58
2023-02-09T06:02:13.047Z,33.35
2023-02-09T06:05:54.966Z,25.77
2023-02-09T06:09:37.094Z,25.02
2023-02-09T06:13:19.061Z,19.02
2023-02-09T06:17:00.992Z,20.98
2023-02-09T06:20:43.094Z,16.20
2023-02-09T06:24:25.254Z,16.88
2023-02-09T06:28:07.577Z,16.52
2023-02-09T06:31:49.866Z,13.25
2023-02-09T06:35:31.807Z,16.02
2023-02-09T06:39:13.742Z,14.77
2023-02-09T06:42:55.719Z,15.05
2023-02-09T06:46:37.807Z,19.30
2023-02-09T06:50:20.406Z,19.35
2023-02-09T06:54:02.521Z,13.32
2023-02-09T06:57:44.664Z,14.35
2023-02-09T07:01:26.705Z,17.55
2023-02-09T07:05:09.063Z,12.43
2023-02-09T07:08:51.153Z,11.85
2023-02-09T07:12:33.230Z,12.60
2023-02-09T07:16:15.412Z,15.68
2023-02-09T07:19:58.069Z,16.70
2023-02-09T07:23:40.050Z,46.53
2023-02-09T07:27:22.062Z,19.20
2023-02-09T07:31:09.461Z,15.48
2023-02-09T07:34:51.420Z,17.33
2023-02-09T07:38:34.142Z,17.17
2023-02-09T07:42:16.330Z,22.45
2023-02-09T07:46:03.327Z,15.90
2023-02-09T07:49:45.246Z,18.90
2023-02-09T07:53:28.251Z,17.83
2023-02-09T07:57:12.833Z,21.75
2023-02-09T08:00:55.070Z,19.38
2023-02-09T08:04:36.993Z,11.55
2023-02-09T08:08:18.987Z,17.40
2023-02-09T08:12:04.582Z,13.95
2023-02-09T08:15:50.648Z,13.10
2023-02-09T08:19:32.861Z,16.25
2023-02-09T08:23:35.635Z,17.85
2023-02-09T08:27:17.545Z,16.85
2023-02-09T08:30:59.578Z,16.55
2023-02-09T08:34:41.517Z,16.25
2023-02-09T08:38:23.430Z,14.13
2023-02-09T08:42:05.666Z,14.18
2023-02-09T08:45:48.254Z,16.85
2023-02-09T08:49:30.433Z,16.75
2023-02-09T08:53:12.505Z,17.90
2023-02-09T08:56:54.596Z,18.13
2023-02-09T09:00:36.537Z,13.15
2023-02-09T09:04:18.450Z,17.23
2023-02-09T09:08:00.388Z,18.77
2023-02-09T09:11:42.307Z,19.85
2023-02-09T09:15:24.476Z,20.20
2023-02-09T09:19:06.383Z,14.70
2023-02-09T09:22:48.316Z,18.48
2023-02-09T09:26:30.269Z,13.63
2023-02-09T09:30:12.868Z,17.40
2023-02-09T09:33:55.672Z,15.88
2023-02-09T09:37:37.628Z,19.13
2023-02-09T09:41:32.042Z,14.40
2023-02-09T09:45:17.963Z,29.92
2023-02-09T09:49:00.818Z,22.17
2023-02-09T09:52:47.637Z,28.63
2023-02-09T09:56:31.301Z,20.67
2023-02-09T10:00:24.403Z,24.17
2023-02-09T10:04:15.088Z,27.75
2023-02-09T10:07:57.009Z,23.15
2023-02-09T10:11:46.005Z,19.83
2023-02-09T10:15:33.372Z,27.30
2023-02-09T10:19:27.749Z,31.13
2023-02-09T10:23:28.432Z,125.97
2023-02-09T10:27:13.222Z,15.43
2023-02-09T10:30:58.508Z,18.52
2023-02-09T10:34:42.952Z,19.40
2023-02-09T10:38:33.146Z,7.63
2023-02-09T10:42:25.195Z,11.82
2023-02-09T10:46:18.607Z,12.27
2023-02-09T10:50:22.668Z,12.88
2023-02-09T10:54:07.569Z,10.93
2023-02-09T10:57:49.559Z,20.88
2023-02-09T11:01:43.331Z,12.00
2023-02-09T11:05:34.714Z,14.57
2023-02-09T11:09:31.666Z,10.32
2023-02-09T11:13:25.665Z,10.38
2023-02-09T11:17:40.176Z,13.13
2023-02-09T11:21:39.081Z,31.20
2023-02-09T11:25:37.302Z,17.05
2023-02-09T11:29:42.191Z,17.95
2023-02-09T11:33:47.375Z,17.63
2023-02-09T11:37:44.315Z,16.63
2023-02-09T11:41:56.654Z,14.70
2023-02-09T11:45:44.770Z,15.13
2023-02-09T11:53:26.437Z,20.90
2023-02-09T11:57:35.021Z,17.65
2023-02-09T12:01:59.893Z,13.65
2023-02-09T12:05:44.529Z,13.88
2023-02-09T12:09:40.824Z,11.65
2023-02-09T12:13:48.571Z,10.13
2023-02-09T12:17:40.533Z,9.35
2023-02-09T12:21:48.813Z,6.93
2023-02-09T12:25:56.552Z,7.65
2023-02-09T12:29:40.849Z,10.52
2023-02-09T12:33:22.796Z,5.70
2023-02-09T12:37:13.400Z,7.63
2023-02-09T12:41:04.964Z,6.95
2023-02-09T12:44:59.724Z,11.05
2023-02-09T12:48:59.748Z,11.35
2023-02-09T12:53:20.339Z,7.47
2023-02-09T12:57:17.425Z,6.93
2023-02-09T13:00:59.416Z,5.05
2023-02-09T13:04:51.620Z,4.72
2023-02-09T13:08:45.488Z,5.25
2023-02-09T13:12:39.097Z,11.52
2023-02-09T13:16:50.492Z,6.53
2023-02-09T13:20:51.084Z,7.38
2023-02-09T13:24:52.852Z,7.55
2023-02-09T13:28:34.904Z,7.97
2023-02-09T13:32:16.869Z,8.95
2023-02-09T13:36:11.138Z,9.95
2023-02-09T13:40:03.246Z,7.22
2023-02-09T13:43:46.950Z,11.63
2023-02-09T13:47:29.405Z,12.32
2023-02-09T13:51:17.535Z,8.32
2023-02-09T13:55:18.522Z,9.05
2023-02-09T13:59:01.187Z,11.02
2023-02-09T14:02:48.026Z,15.23
2023-02-09T14:06:37.262Z,10.13
2023-02-09T14:10:20.167Z,15.35
2023-02-09T14:14:07.647Z,19.05
2023-02-09T14:17:55.304Z,21.75
2023-02-09T14:21:40.040Z,18.02
2023-02-09T14:25:27.793Z,13.98
2023-02-09T14:29:22.664Z,11.52
2023-02-09T14:33:04.693Z,16.95
2023-02-09T14:36:59.639Z,9.10
2023-02-09T14:40:41.678Z,15.80
2023-02-09T14:44:24.207Z,17.05
2023-02-09T14:48:26.357Z,14.07
2023-02-09T14:52:15.027Z,7.50
2023-02-09T14:55:58.126Z,11.52
2023-02-09T14:59:40.061Z,13.85
2023-02-09T15:03:22.695Z,15.82
2023-02-09T15:07:04.864Z,39.80
2023-02-09T15:10:59.678Z,24.55
2023-02-09T15:14:44.725Z,7.15
2023-02-09T15:18:27.710Z,34.20
2023-02-09T15:22:13.562Z,26.90
2023-02-09T15:25:55.563Z,6.85
2023-02-09T15:29:37.488Z,15.48
2023-02-09T15:33:19.476Z,4.45
2023-02-09T15:37:01.751Z,11.27
2023-02-09T15:41:04.163Z,16.60
2023-02-09T15:45:07.160Z,8.57
2023-02-09T15:48:49.106Z,6.63
2023-02-09T15:52:30.991Z,5.05
2023-02-09T15:56:14.127Z,6.88
2023-02-09T15:59:56.035Z,7.00
2023-02-09T16:03:37.940Z,4.28
2023-02-09T16:07:25.331Z,11.45
2023-02-09T16:11:18.388Z,36.03
2023-02-09T16:15:00.365Z,10.75
2023-02-09T16:18:42.422Z,6.55
2023-02-09T16:22:25.239Z,21.20
2023-02-09T16:26:08.755Z,13.23
2023-02-09T16:29:50.925Z,8.57
2023-02-09T16:33:32.945Z,7.88
2023-02-09T16:37:44.851Z,8.20
2023-02-09T16:41:45.538Z,9.50
2023-02-09T16:45:36.592Z,6.80
2023-02-09T16:49:27.379Z,12.23
2023-02-09T16:53:39.502Z,14.50
2023-02-09T16:57:23.448Z,17.10
2023-02-09T17:01:21.567Z,16.52
2023-02-09T17:05:23.883Z,23.55
2023-02-09T17:09:16.997Z,18.23
2023-02-09T17:13:01.793Z,13.98
2023-02-09T17:16:49.618Z,12.80
2023-02-09T17:20:40.976Z,12.18
2023-02-09T17:24:23.041Z,13.55
2023-02-09T17:28:05.741Z,11.85
2023-02-09T17:31:53.655Z,14.48
2023-02-09T17:39:41.659Z,14.18
2023-02-09T17:43:23.908Z,22.17
2023-02-09T17:47:05.962Z,19.63
2023-02-09T17:50:49.628Z,15.68
2023-02-09T17:54:33.634Z,19.52
2023-02-09T17:58:16.369Z,25.55
2023-02-09T18:01:58.983Z,21.70
2023-02-09T18:05:41.354Z,13.70
2023-02-09T18:09:23.305Z,10.50
2023-02-09T18:13:05.423Z,16.95
2023-02-09T18:16:48.200Z,19.83
2023-02-09T18:20:33.287Z,23.95
2023-02-09T18:24:15.481Z,32.25
2023-02-09T18:27:57.505Z,20.08
2023-02-09T18:31:39.891Z,18.70
2023-02-09T18:35:44.684Z,12.38
2023-02-09T18:39:26.979Z,14.77
2023-02-09T18:43:09.136Z,19.92
2023-02-09T18:46:51.081Z,19.15
2023-02-09T18:50:33.221Z,12.82
2023-02-09T18:54:15.233Z,16.83
2023-02-09T18:58:02.203Z,12.20
2023-02-09T19:01:45.293Z,17.27
2023-02-09T19:05:29.812Z,18.88
2023-02-09T19:09:11.753Z,15.85
2023-02-09T19:12:54.374Z,23.48
2023-02-09T19:16:37.640Z,20.02
2023-02-09T19:20:22.090Z,17.33
2023-02-09T19:24:05.806Z,17.08
2023-02-09T19:27:47.852Z,27.13
2023-02-09T19:31:29.898Z,24.30
2023-02-09T19:35:11.927Z,29.17
2023-02-09T19:38:54.361Z,21.80
2023-02-09T19:42:36.378Z,37.60
2023-02-09T19:46:18.346Z,34.85
2023-02-09T19:50:00.666Z,45.33
2023-02-09T19:53:42.592Z,29.48
2023-02-09T19:57:24.598Z,25.38
2023-02-09T20:01:09.222Z,27.17
2023-02-09T20:04:51.298Z,28.08
2023-02-09T20:08:33.175Z,30.15
2023-02-09T20:12:15.110Z,44.70
2023-02-09T20:15:57.244Z,37.03
2023-02-09T20:19:39.305Z,38.72
2023-02-09T20:23:21.493Z,31.25
2023-02-09T20:27:03.788Z,44.17
2023-02-09T20:30:47.352Z,33.53
2023-02-09T20:34:29.546Z,45.63
2023-02-09T20:38:12.586Z,80.47
2023-02-09T20:42:16.198Z,81.25
2023-02-09T20:46:16.947Z,39.28
2023-02-09T20:50:00.332Z,22.85
2023-02-09T20:53:42.388Z,31.13
2023-02-09T20:57:29.466Z,40.05
2023-02-09T21:01:11.699Z,39.90
2023-02-09T21:04:57.645Z,17.63
2023-02-09T21:08:39.685Z,31.17
2023-02-09T21:12:22.175Z,41.80
2023-02-09T21:16:04.642Z,17.33
2023-02-09T21:19:46.819Z,35.00
2023-02-09T21:23:28.767Z,23.73
2023-02-09T21:27:10.982Z,31.17
2023-02-09T21:30:52.945Z,27.58
2023-02-09T21:34:34.887Z,25.98
2023-02-09T21:38:16.936Z,34.30
2023-02-09T21:42:17.196Z,17.88
2023-02-09T21:45:59.200Z,21.85
2023-02-09T21:49:41.401Z,24.83
2023-02-09T21:53:23.337Z,33.17
2023-02-09T21:57:05.393Z,31.02
2023-02-09T22:00:55.829Z,62.40
2023-02-09T22:04:39.421Z,53.13
2023-02-09T22:08:21.338Z,46.22
2023-02-09T22:12:04.487Z,42.47
2023-02-09T22:15:46.880Z,30.92
2023-02-09T22:19:28.827Z,72.75
2023-02-09T22:23:11.005Z,96.28
2023-02-09T22:26:53.087Z,37.70
2023-02-09T22:30:35.374Z,38.13
2023-02-09T22:34:17.384Z,24.10
2023-02-09T22:37:59.655Z,38.70
2023-02-09T22:41:44.438Z,37.80
2023-02-09T22:45:26.322Z,27.08
2023-02-09T22:49:13.173Z,27.05
2023-02-09T22:52:55.078Z,17.33
2023-02-09T22:56:37.040Z,19.17
2023-02-09T23:00:19.106Z,21.48
2023-02-09T23:04:01.072Z,27.40
2023-02-09T23:07:45.209Z,39.20
2023-02-09T23:11:29.425Z,27.63
2023-02-09T23:15:11.362Z,28.88
2023-02-09T23:18:57.085Z,39.22
2023-02-09T23:22:38.976Z,21.73
2023-02-09T23:26:21.276Z,12.98
2023-02-09T23:30:03.480Z,25.33
2023-02-09T23:33:45.628Z,22.52
2023-02-09T23:37:37.388Z,29.90
2023-02-09T23:41:20.055Z,26.35
2023-02-09T23:45:02.008Z,32.53
2023-02-09T23:48:46.602Z,48.53
2023-02-09T23:52:28.528Z,27.35
2023-02-09T23:56:12.327Z,47.85
2023-02-09T23:59:54.209Z,28.00
